sensor_id;sensor_type;location;lat;lon;timestamp;pressure;altitude;pressure_sealevel;temperature;humidity
73870;BME280;64924;42.140;24.762;2023-05-22T00:00:28;99275.31;;;19.44;57.89
73870;BME280;64924;42.140;24.762;2023-05-22T00:02:56;99277.00;;;19.45;57.66
73870;BME280;64924;42.140;24.762;2023-05-22T00:05:22;99274.53;;;19.49;57.68
73870;BME280;64924;42.140;24.762;2023-05-22T00:07:48;99275.38;;;19.17;58.57
73870;BME280;64924;42.140;24.762;2023-05-22T00:10:13;99240.50;;;19.01;58.48
73870;BME280;64924;42.140;24.762;2023-05-22T00:12:39;99277.56;;;19.15;59.08
73870;BME280;64924;42.140;24.762;2023-05-22T00:15:05;99264.63;;;19.16;59.31
73870;BME280;64924;42.140;24.762;2023-05-22T00:17:30;99265.19;;;19.18;59.56
73870;BME280;64924;42.140;24.762;2023-05-22T00:19:58;99273.34;;;19.08;59.77
73870;BME280;64924;42.140;24.762;2023-05-22T00:22:27;99282.50;;;19.13;59.48
73870;BME280;64924;42.140;24.762;2023-05-22T00:24:56;99278.19;;;18.95;59.85
73870;BME280;64924;42.140;24.762;2023-05-22T00:27:21;99255.88;;;18.92;59.65
73870;BME280;64924;42.140;24.762;2023-05-22T00:29:47;99269.13;;;19.00;59.91
73870;BME280;64924;42.140;24.762;2023-05-22T00:32:12;99273.56;;;19.01;60.29
73870;BME280;64924;42.140;24.762;2023-05-22T00:34:38;99262.59;;;18.79;60.37
73870;BME280;64924;42.140;24.762;2023-05-22T00:37:03;99274.50;;;18.85;60.56
73870;BME280;64924;42.140;24.762;2023-05-22T00:39:29;99271.84;;;18.95;59.90
73870;BME280;64924;42.140;24.762;2023-05-22T00:41:55;99285.00;;;18.88;59.72
73870;BME280;64924;42.140;24.762;2023-05-22T00:44:20;99285.97;;;19.03;59.15
73870;BME280;64924;42.140;24.762;2023-05-22T00:46:47;99294.03;;;19.10;59.17
73870;BME280;64924;42.140;24.762;2023-05-22T00:49:12;99292.00;;;19.00;59.70
73870;BME280;64924;42.140;24.762;2023-05-22T00:51:38;99288.47;;;19.05;58.84
73870;BME280;64924;42.140;24.762;2023-05-22T00:54:04;99273.28;;;19.02;58.18
73870;BME280;64924;42.140;24.762;2023-05-22T00:56:30;99283.06;;;19.15;57.79
73870;BME280;64924;42.140;24.762;2023-05-22T00:58:57;99269.56;;;19.14;57.91
73870;BME280;64924;42.140;24.762;2023-05-22T01:01:23;99277.00;;;19.13;58.16
73870;BME280;64924;42.140;24.762;2023-05-22T01:03:51;99283.06;;;19.15;58.43
73870;BME280;64924;42.140;24.762;2023-05-22T01:06:18;99280.88;;;19.17;58.07
73870;BME280;64924;42.140;24.762;2023-05-22T01:08:46;99246.22;;;18.94;57.95
73870;BME280;64924;42.140;24.762;2023-05-22T01:11:17;99244.22;;;18.85;58.21
73870;BME280;64924;42.140;24.762;2023-05-22T01:13:59;99250.66;;;18.95;58.29
73870;BME280;64924;42.140;24.762;2023-05-22T01:16:38;99286.34;;;19.12;58.33
73870;BME280;64924;42.140;24.762;2023-05-22T01:32:59;99273.50;;;19.23;58.44
73870;BME280;64924;42.140;24.762;2023-05-22T01:35:26;99284.63;;;19.38;58.53
73870;BME280;64924;42.140;24.762;2023-05-22T01:37:53;99263.69;;;19.37;57.79
73870;BME280;64924;42.140;24.762;2023-05-22T01:40:19;99271.28;;;19.20;57.50
73870;BME280;64924;42.140;24.762;2023-05-22T01:42:45;99274.81;;;19.15;57.59
73870;BME280;64924;42.140;24.762;2023-05-22T01:45:10;99247.69;;;19.02;57.70
73870;BME280;64924;42.140;24.762;2023-05-22T01:47:37;99270.44;;;19.19;57.59
73870;BME280;64924;42.140;24.762;2023-05-22T01:50:03;99281.72;;;19.18;57.78
73870;BME280;64924;42.140;24.762;2023-05-22T01:52:37;99271.63;;;19.01;58.38
73870;BME280;64924;42.140;24.762;2023-05-22T01:55:11;99279.91;;;19.01;58.29
73870;BME280;64924;42.140;24.762;2023-05-22T02:00:21;99272.63;;;19.17;57.87
73870;BME280;64924;42.140;24.762;2023-05-22T02:02:54;99262.47;;;19.23;57.89
73870;BME280;64924;42.140;24.762;2023-05-22T02:05:22;99225.41;;;19.03;57.75
73870;BME280;64924;42.140;24.762;2023-05-22T02:07:49;99264.34;;;19.17;57.89
73870;BME280;64924;42.140;24.762;2023-05-22T02:10:15;99263.88;;;19.25;57.75
73870;BME280;64924;42.140;24.762;2023-05-22T02:12:41;99257.28;;;19.26;57.57
73870;BME280;64924;42.140;24.762;2023-05-22T02:15:07;99270.25;;;19.31;57.90
73870;BME280;64924;42.140;24.762;2023-05-22T02:17:36;99260.59;;;19.28;58.00
73870;BME280;64924;42.140;24.762;2023-05-22T02:20:08;99277.56;;;19.15;58.23
73870;BME280;64924;42.140;24.762;2023-05-22T02:22:40;99272.06;;;19.15;57.87
73870;BME280;64924;42.140;24.762;2023-05-22T02:25:06;99265.50;;;19.21;57.98
73870;BME280;64924;42.140;24.762;2023-05-22T02:27:35;99263.94;;;19.30;57.44
73870;BME280;64924;42.140;24.762;2023-05-22T02:30:01;99272.47;;;19.02;58.10
73870;BME280;64924;42.140;24.762;2023-05-22T02:32:26;99271.78;;;18.63;59.10
73870;BME280;64924;42.140;24.762;2023-05-22T02:34:52;99287.00;;;18.49;59.74
73870;BME280;64924;42.140;24.762;2023-05-22T02:37:17;99278.63;;;18.38;59.77
73870;BME280;64924;42.140;24.762;2023-05-22T02:39:43;99285.16;;;18.54;59.93
73870;BME280;64924;42.140;24.762;2023-05-22T02:42:08;99284.94;;;18.39;60.37
73870;BME280;64924;42.140;24.762;2023-05-22T02:44:34;99255.13;;;18.31;60.34
73870;BME280;64924;42.140;24.762;2023-05-22T02:46:59;99284.63;;;18.35;61.06
73870;BME280;64924;42.140;24.762;2023-05-22T02:49:25;99265.19;;;18.42;60.79
73870;BME280;64924;42.140;24.762;2023-05-22T02:51:50;99279.44;;;18.61;60.29
73870;BME280;64924;42.140;24.762;2023-05-22T02:54:16;99241.50;;;18.41;60.08
73870;BME280;64924;42.140;24.762;2023-05-22T02:56:42;99279.69;;;18.59;60.65
73870;BME280;64924;42.140;24.762;2023-05-22T02:59:08;99269.41;;;18.72;60.07
73870;BME280;64924;42.140;24.762;2023-05-22T03:01:33;99261.41;;;18.70;59.70
73870;BME280;64924;42.140;24.762;2023-05-22T03:04:00;99274.81;;;18.88;59.59
73870;BME280;64924;42.140;24.762;2023-05-22T03:06:26;99270.16;;;18.89;59.53
73870;BME280;64924;42.140;24.762;2023-05-22T03:08:51;99268.88;;;19.01;59.14
73870;BME280;64924;42.140;24.762;2023-05-22T03:11:17;99277.03;;;19.18;58.95
73870;BME280;64924;42.140;24.762;2023-05-22T03:13:42;99246.53;;;18.93;58.99
73870;BME280;64924;42.140;24.762;2023-05-22T03:16:08;99280.78;;;18.80;59.27
73870;BME280;64924;42.140;24.762;2023-05-22T03:18:34;99282.25;;;18.88;59.20
73870;BME280;64924;42.140;24.762;2023-05-22T03:21:00;99275.97;;;18.92;58.93
73870;BME280;64924;42.140;24.762;2023-05-22T03:23:25;99275.75;;;18.99;58.98
73870;BME280;64924;42.140;24.762;2023-05-22T03:25:51;99274.38;;;19.01;59.10
73870;BME280;64924;42.140;24.762;2023-05-22T03:28:16;99268.63;;;19.03;58.74
73870;BME280;64924;42.140;24.762;2023-05-22T03:30:42;99280.56;;;19.14;58.95
73870;BME280;64924;42.140;24.762;2023-05-22T03:33:07;99283.69;;;19.22;59.00
73870;BME280;64924;42.140;24.762;2023-05-22T03:35:33;99274.38;;;19.28;58.42
73870;BME280;64924;42.140;24.762;2023-05-22T03:37:59;99222.91;;;19.02;58.50
73870;BME280;64924;42.140;24.762;2023-05-22T03:40:24;99239.53;;;19.12;57.84
73870;BME280;64924;42.140;24.762;2023-05-22T03:42:50;99276.38;;;19.38;57.52
73870;BME280;64924;42.140;24.762;2023-05-22T03:45:15;99279.47;;;19.47;56.89
73870;BME280;64924;42.140;24.762;2023-05-22T03:47:41;99271.34;;;19.57;56.88
73870;BME280;64924;42.140;24.762;2023-05-22T03:50:06;99249.38;;;19.40;56.68
73870;BME280;64924;42.140;24.762;2023-05-22T03:52:32;99272.03;;;19.47;56.67
73870;BME280;64924;42.140;24.762;2023-05-22T03:54:57;99262.44;;;19.50;57.03
73870;BME280;64924;42.140;24.762;2023-05-22T03:57:23;99270.66;;;20.29;54.60
73870;BME280;64924;42.140;24.762;2023-05-22T03:59:48;99274.25;;;21.02;52.66
73870;BME280;64924;42.140;24.762;2023-05-22T04:02:14;99283.69;;;21.31;51.25
73870;BME280;64924;42.140;24.762;2023-05-22T04:04:41;99267.34;;;22.01;49.39
73870;BME280;64924;42.140;24.762;2023-05-22T04:07:10;99271.81;;;22.66;48.10
73870;BME280;64924;42.140;24.762;2023-05-22T04:09:37;99286.31;;;22.48;47.83
73870;BME280;64924;42.140;24.762;2023-05-22T04:12:02;99270.66;;;22.03;48.58
73870;BME280;64924;42.140;24.762;2023-05-22T04:14:28;99274.28;;;21.73;49.50
73870;BME280;64924;42.140;24.762;2023-05-22T04:16:53;99284.28;;;21.49;50.50
73870;BME280;64924;42.140;24.762;2023-05-22T04:19:19;99290.28;;;21.05;51.58
73870;BME280;64924;42.140;24.762;2023-05-22T04:21:45;99266.22;;;21.00;51.59
73870;BME280;64924;42.140;24.762;2023-05-22T04:24:11;99266.22;;;20.95;51.90
73870;BME280;64924;42.140;24.762;2023-05-22T04:26:37;99285.28;;;21.02;51.72
73870;BME280;64924;42.140;24.762;2023-05-22T04:29:03;99279.50;;;21.03;51.91
73870;BME280;64924;42.140;24.762;2023-05-22T04:31:30;99287.53;;;21.15;51.54
73870;BME280;64924;42.140;24.762;2023-05-22T04:33:56;99284.78;;;21.15;51.13
73870;BME280;64924;42.140;24.762;2023-05-22T04:36:24;99291.97;;;21.21;50.80
73870;BME280;64924;42.140;24.762;2023-05-22T04:38:53;99285.56;;;21.06;50.86
73870;BME280;64924;42.140;24.762;2023-05-22T04:41:20;99303.22;;;20.94;51.03
73870;BME280;64924;42.140;24.762;2023-05-22T04:43:47;99243.50;;;20.63;51.22
73870;BME280;64924;42.140;24.762;2023-05-22T04:46:15;99278.25;;;20.54;51.71
73870;BME280;64924;42.140;24.762;2023-05-22T04:48:41;99287.88;;;20.46;52.09
73870;BME280;64924;42.140;24.762;2023-05-22T04:51:06;99294.50;;;20.45;52.22
73870;BME280;64924;42.140;24.762;2023-05-22T04:53:32;99295.16;;;20.73;51.38
73870;BME280;64924;42.140;24.762;2023-05-22T04:55:58;99285.91;;;21.90;49.33
73870;BME280;64924;42.140;24.762;2023-05-22T04:58:24;99289.28;;;23.16;46.01
73870;BME280;64924;42.140;24.762;2023-05-22T05:00:52;99284.22;;;23.28;45.59
73870;BME280;64924;42.140;24.762;2023-05-22T05:03:18;99283.16;;;23.19;45.27
73870;BME280;64924;42.140;24.762;2023-05-22T05:05:43;99264.53;;;22.91;45.62
73870;BME280;64924;42.140;24.762;2023-05-22T05:08:09;99296.94;;;22.90;45.91
73870;BME280;64924;42.140;24.762;2023-05-22T05:10:34;99290.19;;;22.47;46.65
73870;BME280;64924;42.140;24.762;2023-05-22T05:13:00;99254.38;;;21.71;48.18
73870;BME280;64924;42.140;24.762;2023-05-22T05:15:25;99292.00;;;21.37;49.79
73870;BME280;64924;42.140;24.762;2023-05-22T05:17:51;99294.16;;;21.09;50.69
73870;BME280;64924;42.140;24.762;2023-05-22T05:20:17;99285.88;;;21.09;50.53
73870;BME280;64924;42.140;24.762;2023-05-22T05:22:42;99305.47;;;21.18;50.41
73870;BME280;64924;42.140;24.762;2023-05-22T05:25:10;99305.41;;;20.87;51.12
73870;BME280;64924;42.140;24.762;2023-05-22T05:27:36;99283.84;;;20.69;51.35
73870;BME280;64924;42.140;24.762;2023-05-22T05:30:01;99309.69;;;21.35;50.51
73870;BME280;64924;42.140;24.762;2023-05-22T05:32:27;99306.09;;;21.65;49.82
73870;BME280;64924;42.140;24.762;2023-05-22T05:34:52;99302.78;;;21.84;49.15
73870;BME280;64924;42.140;24.762;2023-05-22T05:37:18;99270.44;;;21.44;49.69
73870;BME280;64924;42.140;24.762;2023-05-22T05:39:43;99307.50;;;21.53;49.99
73870;BME280;64924;42.140;24.762;2023-05-22T05:42:08;99295.03;;;21.35;50.24
73870;BME280;64924;42.140;24.762;2023-05-22T05:44:34;99300.00;;;21.38;50.34
73870;BME280;64924;42.140;24.762;2023-05-22T05:46:59;99324.03;;;21.22;50.51
73870;BME280;64924;42.140;24.762;2023-05-22T05:49:26;99321.22;;;21.12;51.12
73870;BME280;64924;42.140;24.762;2023-05-22T05:51:51;99335.53;;;20.94;51.75
73870;BME280;64924;42.140;24.762;2023-05-22T05:54:17;99325.06;;;21.01;51.86
73870;BME280;64924;42.140;24.762;2023-05-22T05:56:42;99327.09;;;21.31;51.55
73870;BME280;64924;42.140;24.762;2023-05-22T05:59:08;99289.50;;;21.55;50.44
73870;BME280;64924;42.140;24.762;2023-05-22T06:01:35;99314.53;;;22.55;48.78
73870;BME280;64924;42.140;24.762;2023-05-22T06:04:03;99322.88;;;23.49;47.75
73870;BME280;64924;42.140;24.762;2023-05-22T06:06:30;99331.88;;;25.23;44.81
73870;BME280;64924;42.140;24.762;2023-05-22T06:09:00;99313.13;;;27.36;40.13
73870;BME280;64924;42.140;24.762;2023-05-22T06:11:26;99315.50;;;28.09;37.40
73870;BME280;64924;42.140;24.762;2023-05-22T06:13:52;99325.31;;;28.29;36.85
73870;BME280;64924;42.140;24.762;2023-05-22T06:16:17;99318.94;;;28.77;35.58
73870;BME280;64924;42.140;24.762;2023-05-22T06:18:43;99332.06;;;28.28;35.46
73870;BME280;64924;42.140;24.762;2023-05-22T06:21:10;99338.25;;;27.72;36.39
73870;BME280;64924;42.140;24.762;2023-05-22T06:23:36;99334.69;;;26.94;37.45
73870;BME280;64924;42.140;24.762;2023-05-22T06:26:01;99333.13;;;26.88;37.87
73870;BME280;64924;42.140;24.762;2023-05-22T06:28:26;99344.41;;;26.69;37.97
73870;BME280;64924;42.140;24.762;2023-05-22T06:30:52;99326.25;;;26.58;37.92
73870;BME280;64924;42.140;24.762;2023-05-22T06:33:17;99328.31;;;27.07;37.76
73870;BME280;64924;42.140;24.762;2023-05-22T06:35:43;99335.72;;;27.84;36.12
73870;BME280;64924;42.140;24.762;2023-05-22T06:38:08;99324.22;;;28.78;34.91
73870;BME280;64924;42.140;24.762;2023-05-22T06:40:34;99324.47;;;30.11;32.56
73870;BME280;64924;42.140;24.762;2023-05-22T06:43:00;99323.47;;;31.01;30.81
73870;BME280;64924;42.140;24.762;2023-05-22T06:45:25;99322.78;;;32.53;28.45
73870;BME280;64924;42.140;24.762;2023-05-22T06:47:52;99334.78;;;31.84;27.59
73870;BME280;64924;42.140;24.762;2023-05-22T06:50:19;99334.00;;;31.04;27.96
73870;BME280;64924;42.140;24.762;2023-05-22T06:52:44;99335.81;;;31.08;28.70
73870;BME280;64924;42.140;24.762;2023-05-22T06:55:10;99323.47;;;32.26;27.32
73870;BME280;64924;42.140;24.762;2023-05-22T06:57:35;99327.13;;;34.04;23.74
73870;BME280;64924;42.140;24.762;2023-05-22T07:00:02;99318.56;;;35.42;22.50
73870;BME280;64924;42.140;24.762;2023-05-22T07:02:33;99312.06;;;36.38;20.20
73870;BME280;64924;42.140;24.762;2023-05-22T07:04:59;99320.03;;;36.78;19.89
73870;BME280;64924;42.140;24.762;2023-05-22T07:07:24;99319.22;;;36.77;19.37
73870;BME280;64924;42.140;24.762;2023-05-22T07:09:50;99318.03;;;37.28;19.13
73870;BME280;64924;42.140;24.762;2023-05-22T07:12:15;99312.81;;;37.93;18.50
73870;BME280;64924;42.140;24.762;2023-05-22T07:14:41;99322.31;;;38.89;17.84
73870;BME280;64924;42.140;24.762;2023-05-22T07:17:06;99318.09;;;38.28;17.12
73870;BME280;64924;42.140;24.762;2023-05-22T07:19:32;99307.81;;;37.23;18.52
73870;BME280;64924;42.140;24.762;2023-05-22T07:21:59;99313.72;;;37.11;18.75
73870;BME280;64924;42.140;24.762;2023-05-22T07:24:25;99327.81;;;35.23;20.32
73870;BME280;64924;42.140;24.762;2023-05-22T07:26:51;99334.41;;;32.64;23.36
73870;BME280;64924;42.140;24.762;2023-05-22T07:29:16;99325.31;;;31.47;24.90
73870;BME280;64924;42.140;24.762;2023-05-22T07:31:42;99329.59;;;31.65;25.37
73870;BME280;64924;42.140;24.762;2023-05-22T07:34:08;99328.72;;;32.27;24.91
73870;BME280;64924;42.140;24.762;2023-05-22T07:36:34;99327.59;;;33.13;24.23
73870;BME280;64924;42.140;24.762;2023-05-22T07:38:59;99329.44;;;34.14;22.57
73870;BME280;64924;42.140;24.762;2023-05-22T07:41:25;99329.59;;;34.21;21.70
73870;BME280;64924;42.140;24.762;2023-05-22T07:43:54;99333.09;;;34.14;22.02
73870;BME280;64924;42.140;24.762;2023-05-22T07:46:19;99328.38;;;33.91;22.74
73870;BME280;64924;42.140;24.762;2023-05-22T07:48:45;99302.25;;;33.26;22.99
73870;BME280;64924;42.140;24.762;2023-05-22T07:51:11;99324.59;;;32.82;22.64
73870;BME280;64924;42.140;24.762;2023-05-22T07:53:38;99328.03;;;31.14;24.31
73870;BME280;64924;42.140;24.762;2023-05-22T07:56:03;99325.19;;;29.56;26.41
73870;BME280;64924;42.140;24.762;2023-05-22T07:58:29;99347.69;;;29.17;27.24
73870;BME280;64924;42.140;24.762;2023-05-22T08:00:54;99323.03;;;28.71;27.05
73870;BME280;64924;42.140;24.762;2023-05-22T08:03:20;99325.97;;;29.14;27.18
73870;BME280;64924;42.140;24.762;2023-05-22T08:05:45;99323.50;;;29.21;26.93
73870;BME280;64924;42.140;24.762;2023-05-22T08:08:11;99330.16;;;29.68;26.58
73870;BME280;64924;42.140;24.762;2023-05-22T08:10:37;99339.84;;;29.45;26.71
73870;BME280;64924;42.140;24.762;2023-05-22T08:13:02;99341.19;;;29.56;26.58
73870;BME280;64924;42.140;24.762;2023-05-22T08:15:31;99334.06;;;29.33;26.70
73870;BME280;64924;42.140;24.762;2023-05-22T08:17:57;99333.41;;;28.79;26.84
73870;BME280;64924;42.140;24.762;2023-05-22T08:20:22;99336.97;;;28.00;26.67
73870;BME280;64924;42.140;24.762;2023-05-22T08:22:48;99292.91;;;28.68;26.30
73870;BME280;64924;42.140;24.762;2023-05-22T08:25:16;99308.75;;;30.36;24.24
73870;BME280;64924;42.140;24.762;2023-05-22T08:27:41;99333.72;;;30.67;24.44
73870;BME280;64924;42.140;24.762;2023-05-22T08:30:07;99316.00;;;31.13;22.96
73870;BME280;64924;42.140;24.762;2023-05-22T08:32:33;99321.03;;;31.62;22.67
73870;BME280;64924;42.140;24.762;2023-05-22T08:35:00;99321.28;;;32.55;22.18
73870;BME280;64924;42.140;24.762;2023-05-22T08:37:25;99304.78;;;33.83;21.69
73870;BME280;64924;42.140;24.762;2023-05-22T08:39:51;99325.50;;;34.46;21.27
73870;BME280;64924;42.140;24.762;2023-05-22T08:42:16;99322.47;;;33.96;21.33
73870;BME280;64924;42.140;24.762;2023-05-22T08:44:42;99322.06;;;33.81;21.24
73870;BME280;64924;42.140;24.762;2023-05-22T08:47:08;99318.47;;;33.69;22.05
73870;BME280;64924;42.140;24.762;2023-05-22T08:49:38;99321.44;;;33.48;22.10
73870;BME280;64924;42.140;24.762;2023-05-22T08:52:22;99309.41;;;33.11;22.50
73870;BME280;64924;42.140;24.762;2023-05-22T08:54:54;99314.72;;;32.64;23.50
73870;BME280;64924;42.140;24.762;2023-05-22T08:57:20;99294.34;;;31.35;24.08
73870;BME280;64924;42.140;24.762;2023-05-22T08:59:46;99318.19;;;31.70;24.63
73870;BME280;64924;42.140;24.762;2023-05-22T09:02:12;99311.25;;;31.88;24.50
73870;BME280;64924;42.140;24.762;2023-05-22T09:04:41;99298.72;;;31.23;24.67
73870;BME280;64924;42.140;24.762;2023-05-22T09:07:07;99310.66;;;29.80;26.73
73870;BME280;64924;42.140;24.762;2023-05-22T09:09:37;99314.97;;;29.52;27.41
73870;BME280;64924;42.140;24.762;2023-05-22T09:12:06;99303.16;;;28.33;28.93
73870;BME280;64924;42.140;24.762;2023-05-22T09:14:43;99315.13;;;28.02;29.03
73870;BME280;64924;42.140;24.762;2023-05-22T09:17:10;99316.06;;;28.20;29.17
73870;BME280;64924;42.140;24.762;2023-05-22T09:19:36;99316.56;;;27.55;29.85
73870;BME280;64924;42.140;24.762;2023-05-22T09:22:02;99318.22;;;27.34;30.02
73870;BME280;64924;42.140;24.762;2023-05-22T09:24:28;99318.53;;;27.18;30.37
73870;BME280;64924;42.140;24.762;2023-05-22T09:26:54;99315.03;;;27.13;30.03
73870;BME280;64924;42.140;24.762;2023-05-22T09:29:20;99311.81;;;27.19;30.27
73870;BME280;64924;42.140;24.762;2023-05-22T09:31:47;99307.78;;;27.84;30.01
73870;BME280;64924;42.140;24.762;2023-05-22T09:34:12;99314.72;;;27.50;29.74
73870;BME280;64924;42.140;24.762;2023-05-22T09:36:38;99310.22;;;27.77;29.56
73870;BME280;64924;42.140;24.762;2023-05-22T09:39:03;99302.22;;;27.84;29.36
73870;BME280;64924;42.140;24.762;2023-05-22T09:41:33;99320.47;;;27.90;29.65
73870;BME280;64924;42.140;24.762;2023-05-22T09:43:59;99306.44;;;28.04;28.97
73870;BME280;64924;42.140;24.762;2023-05-22T09:46:25;99313.88;;;28.39;28.48
73870;BME280;64924;42.140;24.762;2023-05-22T09:48:51;99307.03;;;28.54;28.88
73870;BME280;64924;42.140;24.762;2023-05-22T09:51:20;99292.25;;;28.71;28.46
73870;BME280;64924;42.140;24.762;2023-05-22T09:53:48;99299.88;;;28.79;28.43
73870;BME280;64924;42.140;24.762;2023-05-22T09:56:15;99297.69;;;28.58;28.54
73870;BME280;64924;42.140;24.762;2023-05-22T09:58:44;99276.31;;;27.70;29.53
73870;BME280;64924;42.140;24.762;2023-05-22T10:01:10;99253.25;;;27.19;29.94
73870;BME280;64924;42.140;24.762;2023-05-22T10:03:39;99296.41;;;27.58;29.78
73870;BME280;64924;42.140;24.762;2023-05-22T10:06:05;99296.25;;;27.77;29.50
73870;BME280;64924;42.140;24.762;2023-05-22T10:08:37;99279.81;;;28.06;29.22
73870;BME280;64924;42.140;24.762;2023-05-22T10:11:06;99287.56;;;28.09;29.21
73870;BME280;64924;42.140;24.762;2023-05-22T10:13:33;99285.31;;;27.67;29.26
73870;BME280;64924;42.140;24.762;2023-05-22T10:16:00;99287.97;;;27.13;30.57
73870;BME280;64924;42.140;24.762;2023-05-22T10:18:27;99286.91;;;27.23;30.02
73870;BME280;64924;42.140;24.762;2023-05-22T10:20:53;99286.19;;;26.68;29.40
73870;BME280;64924;42.140;24.762;2023-05-22T10:23:19;99286.81;;;26.64;28.75
73870;BME280;64924;42.140;24.762;2023-05-22T10:25:47;99244.59;;;26.44;28.58
73870;BME280;64924;42.140;24.762;2023-05-22T10:28:20;99268.22;;;26.46;29.99
73870;BME280;64924;42.140;24.762;2023-05-22T10:31:00;99295.59;;;26.72;30.02
73870;BME280;64924;42.140;24.762;2023-05-22T10:33:40;99289.09;;;26.62;29.86
73870;BME280;64924;42.140;24.762;2023-05-22T10:41:21;99279.88;;;26.76;30.35
73870;BME280;64924;42.140;24.762;2023-05-22T10:43:47;99281.00;;;27.02;30.02
73870;BME280;64924;42.140;24.762;2023-05-22T10:46:13;99267.25;;;26.78;28.59
73870;BME280;64924;42.140;24.762;2023-05-22T10:48:50;99268.91;;;26.79;28.82
73870;BME280;64924;42.140;24.762;2023-05-22T10:51:21;99226.84;;;26.53;28.43
73870;BME280;64924;42.140;24.762;2023-05-22T10:53:59;99263.66;;;26.78;28.67
73870;BME280;64924;42.140;24.762;2023-05-22T10:56:36;99262.00;;;26.77;28.30
73870;BME280;64924;42.140;24.762;2023-05-22T10:59:03;99252.66;;;26.59;28.83
73870;BME280;64924;42.140;24.762;2023-05-22T11:01:30;99256.81;;;26.02;29.48
73870;BME280;64924;42.140;24.762;2023-05-22T11:06:38;99205.69;;;26.25;28.75
73870;BME280;64924;42.140;24.762;2023-05-22T11:09:30;99235.75;;;27.05;27.63
73870;BME280;64924;42.140;24.762;2023-05-22T11:17:38;99237.19;;;27.61;26.81
73870;BME280;64924;42.140;24.762;2023-05-22T11:20:10;99230.75;;;27.83;26.22
73870;BME280;64924;42.140;24.762;2023-05-22T11:22:41;99236.66;;;27.81;26.37
73870;BME280;64924;42.140;24.762;2023-05-22T11:25:18;99200.56;;;27.62;26.43
73870;BME280;64924;42.140;24.762;2023-05-22T11:27:44;99231.63;;;27.25;26.78
73870;BME280;64924;42.140;24.762;2023-05-22T11:30:11;99236.31;;;27.16;26.89
73870;BME280;64924;42.140;24.762;2023-05-22T11:32:38;99237.28;;;26.48;26.96
73870;BME280;64924;42.140;24.762;2023-05-22T11:35:05;99239.13;;;26.25;27.77
73870;BME280;64924;42.140;24.762;2023-05-22T11:37:36;99254.69;;;26.12;28.11
73870;BME280;64924;42.140;24.762;2023-05-22T11:40:03;99261.84;;;25.72;28.97
73870;BME280;64924;42.140;24.762;2023-05-22T11:42:30;99340.56;;;24.74;31.25
73870;BME280;64924;42.140;24.762;2023-05-22T11:44:56;99300.09;;;22.63;42.54
73870;BME280;64924;42.140;24.762;2023-05-22T11:47:21;99293.06;;;22.07;45.82
73870;BME280;64924;42.140;24.762;2023-05-22T11:49:47;99275.41;;;21.77;47.51
73870;BME280;64924;42.140;24.762;2023-05-22T11:52:15;99309.38;;;21.98;45.27
73870;BME280;64924;42.140;24.762;2023-05-22T11:54:44;99292.50;;;22.25;45.43
73870;BME280;64924;42.140;24.762;2023-05-22T11:57:12;99302.97;;;22.33;47.02
73870;BME280;64924;42.140;24.762;2023-05-22T11:59:37;99310.19;;;22.24;48.09
73870;BME280;64924;42.140;24.762;2023-05-22T12:02:03;99299.16;;;22.19;45.42
73870;BME280;64924;42.140;24.762;2023-05-22T12:04:29;99264.06;;;21.74;45.81
73870;BME280;64924;42.140;24.762;2023-05-22T12:06:54;99296.97;;;21.85;46.91
73870;BME280;64924;42.140;24.762;2023-05-22T12:09:20;99291.88;;;22.33;47.36
73870;BME280;64924;42.140;24.762;2023-05-22T12:11:46;99297.38;;;22.48;46.57
73870;BME280;64924;42.140;24.762;2023-05-22T12:14:12;99293.97;;;22.66;46.54
73870;BME280;64924;42.140;24.762;2023-05-22T12:16:38;99288.38;;;22.87;46.33
73870;BME280;64924;42.140;24.762;2023-05-22T12:19:08;99282.69;;;23.07;45.11
73870;BME280;64924;42.140;24.762;2023-05-22T12:21:34;99279.78;;;23.27;44.46
73870;BME280;64924;42.140;24.762;2023-05-22T12:24:04;99276.13;;;23.37;44.09
73870;BME280;64924;42.140;24.762;2023-05-22T12:26:31;99286.13;;;23.33;43.97
73870;BME280;64924;42.140;24.762;2023-05-22T12:29:00;99277.97;;;23.47;44.06
73870;BME280;64924;42.140;24.762;2023-05-22T12:31:25;99262.03;;;23.28;43.79
73870;BME280;64924;42.140;24.762;2023-05-22T12:33:55;99254.03;;;23.61;42.78
73870;BME280;64924;42.140;24.762;2023-05-22T12:36:30;99257.66;;;23.85;42.10
73870;BME280;64924;42.140;24.762;2023-05-22T12:38:56;99249.50;;;23.70;40.69
73870;BME280;64924;42.140;24.762;2023-05-22T12:41:22;99268.34;;;23.73;40.09
73870;BME280;64924;42.140;24.762;2023-05-22T12:43:47;99258.19;;;23.87;40.38
73870;BME280;64924;42.140;24.762;2023-05-22T12:46:13;99263.66;;;23.97;40.12
73870;BME280;64924;42.140;24.762;2023-05-22T12:48:38;99265.84;;;24.00;40.37
73870;BME280;64924;42.140;24.762;2023-05-22T12:51:04;99267.56;;;23.96;41.03
73870;BME280;64924;42.140;24.762;2023-05-22T12:53:30;99229.56;;;23.68;42.15
73870;BME280;64924;42.140;24.762;2023-05-22T12:55:55;99275.25;;;24.05;42.89
73870;BME280;64924;42.140;24.762;2023-05-22T12:58:21;99270.19;;;24.12;43.80
73870;BME280;64924;42.140;24.762;2023-05-22T13:00:46;99251.72;;;24.21;43.22
73870;BME280;64924;42.140;24.762;2023-05-22T13:03:12;99240.53;;;24.31;42.42
73870;BME280;64924;42.140;24.762;2023-05-22T13:05:37;99245.16;;;24.41;41.57
73870;BME280;64924;42.140;24.762;2023-05-22T13:08:03;99241.13;;;24.28;41.65
73870;BME280;64924;42.140;24.762;2023-05-22T13:10:29;99237.00;;;24.25;41.15
73870;BME280;64924;42.140;24.762;2023-05-22T13:12:54;99254.69;;;24.53;39.99
73870;BME280;64924;42.140;24.762;2023-05-22T13:15:20;99250.53;;;24.75;38.63
73870;BME280;64924;42.140;24.762;2023-05-22T13:17:45;99253.59;;;24.73;38.30